Temp: 5.8°C   Baro: 1006.9mb
  Wind: 0.9mph   Dir: SSW (210°)
  Rain: 0.2mm (0.0mm/hr)
  Solar: 0W/m2  Hum: 93%

Historic data

Bath Spa Weather Station Historical Data
Daily Summary for October 04, 2022 Units:  Both    English   Metric
Daily Weekly Monthly Yearly Custom
  High: Low: Average:
Temperature: 65.1 °F /  18.4 °C 55.6 °F /  13.1 °C 59.9 °F /  15.5 °C
Dew Point: 57.2 °F /  14 °C 51.6 °F /  10.9 °C 55.2 °F /  12.9 °C
Humidity: 92% 75% 84%
Wind Speed: 12mph /  19.3km/h - 5.2mph /  8.4km/h
Wind Gust: 22mph /  35.4km/h - -
Wind- - SSW
Pressure: 30.13 in /  1020.2 hPa 29.91 in /  1012.8 hPa -
Precipitation: 0.00 in /  0 mm    
Historical Graphs
 
 
Tabular Data for October 04, 2022
Time Temperature Dew Point Pressure Wind Wind Speed Wind Gust Humidity Rainfall Rate (Hourly) solar
00:09 56.6 °F /  13.7 °C 53.6 °F /  12 °C 30.13in /  1020.2hPa SSE 0.6mph /  1km/h 2mph /  3.2km/h 89.6% 0.00in /  0mm 0 W/m2
00:14 56.7 °F /  13.7 °C 53.8 °F /  12.1 °C 30.13in /  1020.2hPa SSE 0.7mph /  1.1km/h 2mph /  3.2km/h 90% 0.00in /  0mm 0 W/m2
00:19 56.8 °F /  13.8 °C 53.9 °F /  12.2 °C 30.13in /  1020.2hPa SSE 0.5mph /  0.8km/h 2mph /  3.2km/h 90% 0.00in /  0mm 0 W/m2
00:24 57 °F /  13.9 °C 54.1 °F /  12.3 °C 30.13in /  1020.2hPa SSE 0.4mph /  0.6km/h 3mph /  4.8km/h 90% 0.00in /  0mm 0 W/m2
00:29 57.4 °F /  14.1 °C 54.5 °F /  12.5 °C 30.13in /  1020.2hPa Calm   2mph /  3.2km/h 90% 0.00in /  0mm 0 W/m2
00:34 57.4 °F /  14.1 °C 54.5 °F /  12.5 °C 30.13in /  1020.2hPa SSE 0.4mph /  0.6km/h 3mph /  4.8km/h 90% 0.00in /  0mm 0 W/m2
00:39 57.4 °F /  14.1 °C 54.5 °F /  12.5 °C 30.12in /  1019.9hPa SSE 0.9mph /  1.4km/h 2mph /  3.2km/h 90% 0.00in /  0mm 0 W/m2
00:44 57 °F /  13.9 °C 54.3 °F /  12.4 °C 30.12in /  1019.9hPa SSE 0.2mph /  0.3km/h 2mph /  3.2km/h 90.4% 0.00in /  0mm 0 W/m2
00:49 57 °F /  13.9 °C 54.5 °F /  12.5 °C 30.11in /  1019.5hPa SSE 1.7mph /  2.7km/h 2mph /  3.2km/h 91% 0.00in /  0mm 0 W/m2
00:54 56.8 °F /  13.8 °C 54.3 °F /  12.4 °C 30.11in /  1019.5hPa SSE 1.3mph /  2.1km/h 3mph /  4.8km/h 91% 0.00in /  0mm 0 W/m2
00:59 56.8 °F /  13.8 °C 54.3 °F /  12.4 °C 30.11in /  1019.5hPa SSE 1mph /  1.6km/h 3mph /  4.8km/h 91% 0.00in /  0mm 0 W/m2
01:04 56.8 °F /  13.8 °C 54.3 °F /  12.4 °C 30.11in /  1019.5hPa Calm   2mph /  3.2km/h 91% 0.00in /  0mm 0 W/m2
01:09 56.8 °F /  13.8 °C 54.3 °F /  12.4 °C 30.11in /  1019.5hPa Calm     91% 0.00in /  0mm 0 W/m2
01:14 56.8 °F /  13.8 °C 54.2 °F /  12.3 °C 30.11in /  1019.5hPa Calm     91% 0.00in /  0mm 0 W/m2
01:19 56.7 °F /  13.7 °C 54.1 °F /  12.3 °C 30.11in /  1019.5hPa Calm     91% 0.00in /  0mm 0 W/m2
01:24 56.7 °F /  13.7 °C 54.1 °F /  12.3 °C 30.11in /  1019.5hPa Calm     91% 0.00in /  0mm 0 W/m2
01:29 56.8 °F /  13.8 °C 54.2 °F /  12.3 °C 30.11in /  1019.5hPa Calm     91% 0.00in /  0mm 0 W/m2
01:34 56.8 °F /  13.8 °C 54.4 °F /  12.4 °C 30.11in /  1019.5hPa South 0.6mph /  1km/h 4mph /  6.4km/h 91.4% 0.00in /  0mm 0 W/m2
01:39 57 °F /  13.9 °C 54.7 °F /  12.6 °C 30.10in /  1019.2hPa South 0.8mph /  1.3km/h 3mph /  4.8km/h 92% 0.00in /  0mm 0 W/m2
01:44 56.8 °F /  13.8 °C 54.4 °F /  12.4 °C 30.10in /  1019.2hPa South 0.8mph /  1.3km/h 2mph /  3.2km/h 91.4% 0.00in /  0mm 0 W/m2
01:49 57 °F /  13.9 °C 54.5 °F /  12.5 °C 30.10in /  1019.2hPa South 1.1mph /  1.8km/h 2mph /  3.2km/h 91.2% 0.00in /  0mm 0 W/m2
01:54 57 °F /  13.9 °C 54.6 °F /  12.6 °C 30.10in /  1019.2hPa South 0.8mph /  1.3km/h 2mph /  3.2km/h 91.6% 0.00in /  0mm 0 W/m2
01:59 57.1 °F /  13.9 °C 54.8 °F /  12.7 °C 30.09in /  1018.8hPa South 1.3mph /  2.1km/h 4mph /  6.4km/h 92% 0.00in /  0mm 0 W/m2
02:04 57.2 °F /  14 °C 54.9 °F /  12.7 °C 30.09in /  1018.8hPa South 1mph /  1.6km/h 4mph /  6.4km/h 92% 0.00in /  0mm 0 W/m2
02:09 57.4 °F /  14.1 °C 55 °F /  12.8 °C 30.09in /  1018.8hPa South 0.2mph /  0.3km/h 3mph /  4.8km/h 91.6% 0.00in /  0mm 0 W/m2
02:14 57.4 °F /  14.1 °C 54.9 °F /  12.7 °C 30.09in /  1018.8hPa South 1.2mph /  1.9km/h 3mph /  4.8km/h 91.2% 0.00in /  0mm 0 W/m2
02:19 57.4 °F /  14.1 °C 54.9 °F /  12.7 °C 30.09in /  1018.8hPa South 0.9mph /  1.4km/h 4mph /  6.4km/h 91% 0.00in /  0mm 0 W/m2
02:24 57.4 °F /  14.1 °C 54.9 °F /  12.7 °C 30.09in /  1018.8hPa South 1.3mph /  2.1km/h 3mph /  4.8km/h 91% 0.00in /  0mm 0 W/m2
02:29 57.4 °F /  14.1 °C 54.9 °F /  12.7 °C 30.09in /  1018.8hPa South 1.1mph /  1.8km/h 3mph /  4.8km/h 91% 0.00in /  0mm 0 W/m2
02:34 57.4 °F /  14.1 °C 54.9 °F /  12.7 °C 30.09in /  1018.8hPa SSW 2.5mph /  4km/h 6mph /  9.7km/h 91% 0.00in /  0mm 0 W/m2
02:39 57.4 °F /  14.1 °C 54.9 °F /  12.7 °C 30.09in /  1018.8hPa SSW 1.3mph /  2.1km/h 4mph /  6.4km/h 91% 0.00in /  0mm 0 W/m2
02:44 57.4 °F /  14.1 °C 54.6 °F /  12.6 °C 30.09in /  1018.8hPa SSW 1.4mph /  2.3km/h 3mph /  4.8km/h 90.2% 0.00in /  0mm 0 W/m2
02:49 57.4 °F /  14.1 °C 54.5 °F /  12.5 °C 30.09in /  1018.8hPa SSW 1.2mph /  1.9km/h 4mph /  6.4km/h 90% 0.00in /  0mm 0 W/m2
02:54 57.4 °F /  14.1 °C 54.5 °F /  12.5 °C 30.09in /  1018.8hPa SSW 0.8mph /  1.3km/h 4mph /  6.4km/h 90% 0.00in /  0mm 0 W/m2
02:59 57.4 °F /  14.1 °C 54.5 °F /  12.5 °C 30.08in /  1018.5hPa SSW 1mph /  1.6km/h 3mph /  4.8km/h 90% 0.00in /  0mm 0 W/m2
03:04 57.4 °F /  14.1 °C 54.5 °F /  12.5 °C 30.08in /  1018.5hPa SSW 1.8mph /  2.9km/h 2mph /  3.2km/h 90% 0.00in /  0mm 0 W/m2
03:09 57.4 °F /  14.1 °C 54.5 °F /  12.5 °C 30.08in /  1018.5hPa Calm   4mph /  6.4km/h 90% 0.00in /  0mm 0 W/m2
03:14 57.4 °F /  14.1 °C 54.5 °F /  12.5 °C 30.08in /  1018.5hPa Calm   1mph /  1.6km/h 90% 0.00in /  0mm 0 W/m2
03:19 57.4 °F /  14.1 °C 54.5 °F /  12.5 °C 30.08in /  1018.5hPa SSW 0.8mph /  1.3km/h 3mph /  4.8km/h 90% 0.00in /  0mm 0 W/m2
03:24 57.4 °F /  14.1 °C 54.5 °F /  12.5 °C 30.07in /  1018.2hPa SSW 1.4mph /  2.3km/h 4mph /  6.4km/h 90% 0.00in /  0mm 0 W/m2
03:29 57.4 °F /  14.1 °C 54.5 °F /  12.5 °C 30.07in /  1018.2hPa SSW 2.5mph /  4km/h 5mph /  8km/h 90% 0.00in /  0mm 0 W/m2
03:34 57.3 °F /  14.1 °C 54.1 °F /  12.3 °C 30.07in /  1018.2hPa SSW 1.9mph /  3.1km/h 5mph /  8km/h 89.2% 0.00in /  0mm 0 W/m2
03:39 57.4 °F /  14.1 °C 54.1 °F /  12.3 °C 30.07in /  1018.2hPa SSW 0.9mph /  1.4km/h 4mph /  6.4km/h 89% 0.00in /  0mm 0 W/m2
03:44 57.4 °F /  14.1 °C 54.1 °F /  12.3 °C 30.07in /  1018.2hPa SSW 1.9mph /  3.1km/h 6mph /  9.7km/h 89% 0.00in /  0mm 0 W/m2
03:49 57.4 °F /  14.1 °C 53.8 °F /  12.1 °C 30.06in /  1017.8hPa SSW 3.3mph /  5.3km/h 6mph /  9.7km/h 88% 0.00in /  0mm 0 W/m2
03:54 57.4 °F /  14.1 °C 53.8 °F /  12.1 °C 30.06in /  1017.8hPa SW 3.7mph /  6km/h 7mph /  11.3km/h 88% 0.00in /  0mm 0 W/m2
03:59 57.5 °F /  14.2 °C 53.7 °F /  12.1 °C 30.06in /  1017.8hPa SW 4.1mph /  6.6km/h 8mph /  12.9km/h 87% 0.00in /  0mm 0 W/m2
04:04 57.6 °F /  14.2 °C 53.8 °F /  12.1 °C 30.06in /  1017.8hPa SSW 2.6mph /  4.2km/h 6mph /  9.7km/h 87% 0.00in /  0mm 0 W/m2
04:08 57.6 °F /  14.2 °C 53.8 °F /  12.1 °C 30.06in /  1017.8hPa SW 5.3mph /  8.5km/h 9mph /  14.5km/h 87% 0.00in /  0mm 0 W/m2
04:14 57.6 °F /  14.2 °C 53.6 °F /  12 °C 30.06in /  1017.8hPa SW 3.7mph /  6km/h 9mph /  14.5km/h 86.6% 0.00in /  0mm 0 W/m2
04:19 57.4 °F /  14.1 °C 53.2 °F /  11.8 °C 30.06in /  1017.8hPa WSW 3.6mph /  5.8km/h 7mph /  11.3km/h 86% 0.00in /  0mm 0 W/m2
04:24 57.4 °F /  14.1 °C 53.2 °F /  11.8 °C 30.06in /  1017.8hPa WSW 2mph /  3.2km/h 6mph /  9.7km/h 86% 0.00in /  0mm 0 W/m2
04:29 57.4 °F /  14.1 °C 53.6 °F /  12 °C 30.06in /  1017.8hPa WSW 1.7mph /  2.7km/h 6mph /  9.7km/h 87% 0.00in /  0mm 0 W/m2
04:34 57.3 °F /  14.1 °C 53.5 °F /  11.9 °C 30.06in /  1017.8hPa WSW 1.8mph /  2.9km/h 4mph /  6.4km/h 87% 0.00in /  0mm 0 W/m2
04:39 57.2 °F /  14 °C 53.2 °F /  11.8 °C 30.06in /  1017.8hPa WSW 2.9mph /  4.7km/h 7mph /  11.3km/h 86.6% 0.00in /  0mm 0 W/m2
04:44 57.1 °F /  13.9 °C 53 °F /  11.7 °C 30.06in /  1017.8hPa West 2.9mph /  4.7km/h 6mph /  9.7km/h 86% 0.00in /  0mm 0 W/m2
04:49 57.1 °F /  13.9 °C 53 °F /  11.7 °C 30.05in /  1017.5hPa SW 5.7mph /  9.2km/h 8mph /  12.9km/h 86% 0.00in /  0mm 0 W/m2
04:54 57.2 °F /  14 °C 53.1 °F /  11.7 °C 30.06in /  1017.8hPa SW 4.9mph /  7.9km/h 10mph /  16.1km/h 86% 0.00in /  0mm 0 W/m2
04:59 57.2 °F /  14 °C 53.1 °F /  11.7 °C 30.05in /  1017.5hPa SSW 2.5mph /  4km/h 7mph /  11.3km/h 86% 0.00in /  0mm 0 W/m2
05:04 57 °F /  13.9 °C 52.9 °F /  11.6 °C 30.05in /  1017.5hPa WSW 2mph /  3.2km/h 8mph /  12.9km/h 86% 0.00in /  0mm 0 W/m2
05:09 57 °F /  13.9 °C 52.9 °F /  11.6 °C 30.05in /  1017.5hPa SW 2.9mph /  4.7km/h 7mph /  11.3km/h 86% 0.00in /  0mm 0 W/m2
05:14 57 °F /  13.9 °C 52.9 °F /  11.6 °C 30.05in /  1017.5hPa SW 3.6mph /  5.8km/h 9mph /  14.5km/h 86% 0.00in /  0mm 0 W/m2
05:19 56.8 °F /  13.8 °C 52.7 °F /  11.5 °C 30.05in /  1017.5hPa SW 5.3mph /  8.5km/h 11mph /  17.7km/h 86% 0.00in /  0mm 0 W/m2
05:24 56.8 °F /  13.8 °C 52.7 °F /  11.5 °C 30.05in /  1017.5hPa SW 4mph /  6.4km/h 8mph /  12.9km/h 86% 0.00in /  0mm 0 W/m2
05:29 56.7 °F /  13.7 °C 52.6 °F /  11.4 °C 30.05in /  1017.5hPa SW 4.8mph /  7.7km/h 9mph /  14.5km/h 86% 0.00in /  0mm 0 W/m2
05:34 56.6 °F /  13.7 °C 52.4 °F /  11.3 °C 30.05in /  1017.5hPa SW 5.2mph /  8.4km/h 9mph /  14.5km/h 86% 0.00in /  0mm 0 W/m2
05:39 56.5 °F /  13.6 °C 52.3 °F /  11.3 °C 30.05in /  1017.5hPa SW 4.9mph /  7.9km/h 10mph /  16.1km/h 86% 0.00in /  0mm 0 W/m2
05:44 56.5 °F /  13.6 °C 52 °F /  11.1 °C 30.05in /  1017.5hPa WSW 4mph /  6.4km/h 10mph /  16.1km/h 85% 0.00in /  0mm 0 W/m2
05:49 56.5 °F /  13.6 °C 52 °F /  11.1 °C 30.05in /  1017.5hPa SW 4.4mph /  7.1km/h 9mph /  14.5km/h 85% 0.00in /  0mm 0 W/m2
05:54 56.5 °F /  13.6 °C 52 °F /  11.1 °C 30.05in /  1017.5hPa SW 4.9mph /  7.9km/h 9mph /  14.5km/h 85% 0.00in /  0mm 0 W/m2
05:59 56.5 °F /  13.6 °C 52 °F /  11.1 °C 30.05in /  1017.5hPa WSW 4.5mph /  7.2km/h 9mph /  14.5km/h 85% 0.00in /  0mm 0 W/m2
06:04 56.5 °F /  13.6 °C 51.9 °F /  11.1 °C 30.05in /  1017.5hPa SW 1.8mph /  2.9km/h 7mph /  11.3km/h 84.8% 0.00in /  0mm 0 W/m2
06:09 56.5 °F /  13.6 °C 51.6 °F /  10.9 °C 30.05in /  1017.5hPa WSW 0.6mph /  1km/h 8mph /  12.9km/h 84% 0.00in /  0mm 0 W/m2
06:14 56.5 °F /  13.6 °C 51.6 °F /  10.9 °C 30.05in /  1017.5hPa SSW 2.8mph /  4.5km/h 7mph /  11.3km/h 84% 0.00in /  0mm 0 W/m2
06:19 56.6 °F /  13.7 °C 51.7 °F /  10.9 °C 30.04in /  1017.2hPa SW 1.6mph /  2.6km/h 7mph /  11.3km/h 84% 0.00in /  0mm 0 W/m2
06:24 56.7 °F /  13.7 °C 51.8 °F /  11 °C 30.04in /  1017.2hPa SSW 3.1mph /  5km/h 8mph /  12.9km/h 84% 0.00in /  0mm 0 W/m2
06:29 56.7 °F /  13.7 °C 51.8 °F /  11 °C 30.04in /  1017.2hPa SW 5.3mph /  8.5km/h 12mph /  19.3km/h 84% 0.00in /  0mm 0 W/m2
06:34 56.5 °F /  13.6 °C 51.7 °F /  10.9 °C 30.04in /  1017.2hPa SW 5.6mph /  9km/h 12mph /  19.3km/h 84.2% 0.00in /  0mm 0 W/m2
06:39 56.5 °F /  13.6 °C 52 °F /  11.1 °C 30.04in /  1017.2hPa South 5.2mph /  8.4km/h 11mph /  17.7km/h 85% 0.00in /  0mm 0 W/m2
06:44 56.3 °F /  13.5 °C 52.1 °F /  11.2 °C 30.04in /  1017.2hPa SSW 4.1mph /  6.6km/h 11mph /  17.7km/h 85.8% 0.00in /  0mm 0 W/m2
06:49 56.1 °F /  13.4 °C 52 °F /  11.1 °C 30.04in /  1017.2hPa SSW 4.3mph /  6.9km/h 9mph /  14.5km/h 86.2% 0.00in /  0mm 0 W/m2
06:54 55.9 °F /  13.3 °C 52.2 °F /  11.2 °C 30.03in /  1016.8hPa SSW 5.1mph /  8.2km/h 11mph /  17.7km/h 87% 0.00in /  0mm 0 W/m2
06:59 55.8 °F /  13.2 °C 52 °F /  11.1 °C 30.03in /  1016.8hPa SSW 6.5mph /  10.5km/h 11mph /  17.7km/h 87% 0.00in /  0mm 0 W/m2
07:04 55.8 °F /  13.2 °C 52.2 °F /  11.2 °C 30.03in /  1016.8hPa SSW 6.2mph /  10km/h 11mph /  17.7km/h 87.6% 0.00in /  0mm 0 W/m2
07:09 55.8 °F /  13.2 °C 52.3 °F /  11.3 °C 30.03in /  1016.8hPa South 4mph /  6.4km/h 9mph /  14.5km/h 88% 0.00in /  0mm 0 W/m2
07:14 55.8 °F /  13.2 °C 52.3 °F /  11.3 °C 30.03in /  1016.8hPa SSW 4.6mph /  7.4km/h 10mph /  16.1km/h 88% 0.00in /  0mm 5 W/m2
07:19 55.6 °F /  13.1 °C 52.2 °F /  11.2 °C 30.03in /  1016.8hPa South 5.1mph /  8.2km/h 10mph /  16.1km/h 88.4% 0.00in /  0mm 9 W/m2
07:24 55.6 °F /  13.1 °C 52.3 °F /  11.3 °C 30.03in /  1016.8hPa South 4.7mph /  7.6km/h 10mph /  16.1km/h 89% 0.00in /  0mm 16 W/m2
07:29 55.8 °F /  13.2 °C 52.5 °F /  11.4 °C 30.03in /  1016.8hPa SSW 3.4mph /  5.5km/h 10mph /  16.1km/h 89% 0.00in /  0mm 16 W/m2
07:34 55.8 °F /  13.2 °C 52.5 °F /  11.4 °C 30.03in /  1016.8hPa SSW 6.2mph /  10km/h 10mph /  16.1km/h 89% 0.00in /  0mm 14 W/m2
07:39 55.8 °F /  13.2 °C 52.6 °F /  11.4 °C 30.03in /  1016.8hPa SW 3.7mph /  6km/h 10mph /  16.1km/h 89% 0.00in /  0mm 23 W/m2
07:44 55.9 °F /  13.3 °C 52.7 °F /  11.5 °C 30.04in /  1017.2hPa SSW 5.6mph /  9km/h 9mph /  14.5km/h 89% 0.00in /  0mm 28 W/m2
07:49 56.1 °F /  13.4 °C 52.9 °F /  11.6 °C 30.03in /  1016.8hPa SSW 3.9mph /  6.3km/h 8mph /  12.9km/h 89% 0.00in /  0mm 37 W/m2
07:54 56.1 °F /  13.4 °C 52.9 °F /  11.6 °C 30.03in /  1016.8hPa South 3.2mph /  5.1km/h 7mph /  11.3km/h 89% 0.00in /  0mm 40 W/m2
07:59 56.3 °F /  13.5 °C 53.1 °F /  11.7 °C 30.03in /  1016.8hPa SSW 3.5mph /  5.6km/h 11mph /  17.7km/h 89% 0.00in /  0mm 42 W/m2
08:04 56.5 °F /  13.6 °C 53.2 °F /  11.8 °C 30.03in /  1016.8hPa South 4.4mph /  7.1km/h 8mph /  12.9km/h 89% 0.00in /  0mm 42 W/m2
08:09 56.7 °F /  13.7 °C 53.4 °F /  11.9 °C 30.03in /  1016.8hPa SSW 3.4mph /  5.5km/h 8mph /  12.9km/h 89% 0.00in /  0mm 47 W/m2
08:14 56.8 °F /  13.8 °C 53.6 °F /  12 °C 30.03in /  1016.8hPa SSW 3.1mph /  5km/h 7mph /  11.3km/h 89% 0.00in /  0mm 62 W/m2
08:19 56.9 °F /  13.8 °C 53.6 °F /  12 °C 30.03in /  1016.8hPa SSW 5.2mph /  8.4km/h 9mph /  14.5km/h 88.8% 0.00in /  0mm 54 W/m2
08:24 57 °F /  13.9 °C 53.8 °F /  12.1 °C 30.03in /  1016.8hPa South 3.3mph /  5.3km/h 11mph /  17.7km/h 88.8% 0.00in /  0mm 70 W/m2
08:29 57.3 °F /  14.1 °C 53.7 °F /  12.1 °C 30.03in /  1016.8hPa SSW 4.4mph /  7.1km/h 8mph /  12.9km/h 88% 0.00in /  0mm 95 W/m2
08:34 57.4 °F /  14.1 °C 53.8 °F /  12.1 °C 30.03in /  1016.8hPa SSW 5.7mph /  9.2km/h 11mph /  17.7km/h 88% 0.00in /  0mm 83 W/m2
08:39 57.6 °F /  14.2 °C 54 °F /  12.2 °C 30.03in /  1016.8hPa SSW 6mph /  9.7km/h 11mph /  17.7km/h 88% 0.00in /  0mm 79 W/m2
08:44 57.6 °F /  14.2 °C 54 °F /  12.2 °C 30.03in /  1016.8hPa South 6mph /  9.7km/h 13mph /  20.9km/h 88% 0.00in /  0mm 111 W/m2
08:49 57.7 °F /  14.3 °C 54.1 °F /  12.3 °C 30.03in /  1016.8hPa SSW 5mph /  8km/h 9mph /  14.5km/h 88% 0.00in /  0mm 120 W/m2
08:54 57.7 °F /  14.3 °C 54.1 °F /  12.3 °C 30.03in /  1016.8hPa SSW 5.8mph /  9.3km/h 13mph /  20.9km/h 88% 0.00in /  0mm 116 W/m2
08:59 57.7 °F /  14.3 °C 54.1 °F /  12.3 °C 30.03in /  1016.8hPa SSW 5.2mph /  8.4km/h 11mph /  17.7km/h 88% 0.00in /  0mm 77 W/m2
09:04 57.9 °F /  14.4 °C 54.7 °F /  12.6 °C 30.03in /  1016.8hPa SSW 5.5mph /  8.9km/h 10mph /  16.1km/h 89% 0.00in /  0mm 88 W/m2
09:09 57.9 °F /  14.4 °C 54.7 °F /  12.6 °C 30.03in /  1016.8hPa SSW 5.8mph /  9.3km/h 10mph /  16.1km/h 89% 0.00in /  0mm 120 W/m2
09:14 57.9 °F /  14.4 °C 54.7 °F /  12.6 °C 30.03in /  1016.8hPa SW 5.8mph /  9.3km/h 10mph /  16.1km/h 89% 0.00in /  0mm 132 W/m2
09:19 58.1 °F /  14.5 °C 54.9 °F /  12.7 °C 30.03in /  1016.8hPa SSW 7mph /  11.3km/h 12mph /  19.3km/h 89% 0.00in /  0mm 227 W/m2
09:24 58.3 °F /  14.6 °C 55 °F /  12.8 °C 30.03in /  1016.8hPa SSW 6.8mph /  10.9km/h 12mph /  19.3km/h 89% 0.00in /  0mm 169 W/m2
09:29 58.3 °F /  14.6 °C 55 °F /  12.8 °C 30.04in /  1017.2hPa SW 6mph /  9.7km/h 12mph /  19.3km/h 89% 0.00in /  0mm 149 W/m2
09:34 58.3 °F /  14.6 °C 55 °F /  12.8 °C 30.04in /  1017.2hPa SW 5.9mph /  9.5km/h 12mph /  19.3km/h 89% 0.00in /  0mm 118 W/m2
09:39 57.9 °F /  14.4 °C 54.9 °F /  12.7 °C 30.03in /  1016.8hPa SSW 6mph /  9.7km/h 11mph /  17.7km/h 89.4% 0.00in /  0mm 128 W/m2
09:44 57.9 °F /  14.4 °C 55 °F /  12.8 °C 30.03in /  1016.8hPa SW 4.4mph /  7.1km/h 11mph /  17.7km/h 90% 0.00in /  0mm 148 W/m2
09:49 57.9 °F /  14.4 °C 55 °F /  12.8 °C 30.03in /  1016.8hPa SSW 4.5mph /  7.2km/h 12mph /  19.3km/h 90% 0.00in /  0mm 135 W/m2
09:54 57.9 °F /  14.4 °C 55 °F /  12.8 °C 30.03in /  1016.8hPa SSW 4.4mph /  7.1km/h 12mph /  19.3km/h 90% 0.00in /  0mm 234 W/m2
09:59 58.3 °F /  14.6 °C 55.5 °F /  13.1 °C 30.03in /  1016.8hPa SSW 5.5mph /  8.9km/h 8mph /  12.9km/h 90.6% 0.00in /  0mm 243 W/m2
10:04 58.5 °F /  14.7 °C 55.8 °F /  13.2 °C 30.03in /  1016.8hPa SSW 3.8mph /  6.1km/h 9mph /  14.5km/h 90.8% 0.00in /  0mm 213 W/m2
10:09 58.7 °F /  14.8 °C 55.8 °F /  13.2 °C 30.03in /  1016.8hPa South 3.3mph /  5.3km/h 8mph /  12.9km/h 90% 0.00in /  0mm 163 W/m2
10:14 58.6 °F /  14.8 °C 55.8 °F /  13.2 °C 30.03in /  1016.8hPa South 5.2mph /  8.4km/h 11mph /  17.7km/h 90% 0.00in /  0mm 160 W/m2
10:19 58.6 °F /  14.8 °C 55.8 °F /  13.2 °C 30.02in /  1016.5hPa SSW 3.8mph /  6.1km/h 9mph /  14.5km/h 90% 0.00in /  0mm 218 W/m2
10:24 58.6 °F /  14.8 °C 55.8 °F /  13.2 °C 30.02in /  1016.5hPa South 6mph /  9.7km/h 11mph /  17.7km/h 90% 0.00in /  0mm 250 W/m2
10:29 58.7 °F /  14.8 °C 55.9 °F /  13.3 °C 30.02in /  1016.5hPa SSW 6.1mph /  9.8km/h 10mph /  16.1km/h 90% 0.00in /  0mm 292 W/m2
10:34 59.2 °F /  15.1 °C 56.3 °F /  13.5 °C 30.02in /  1016.5hPa SW 5.2mph /  8.4km/h 9mph /  14.5km/h 90% 0.00in /  0mm 211 W/m2
10:39 59.4 °F /  15.2 °C 56.6 °F /  13.7 °C 30.03in /  1016.8hPa SW 5.1mph /  8.2km/h 11mph /  17.7km/h 90% 0.00in /  0mm 394 W/m2
10:44 59.9 °F /  15.5 °C 56.8 °F /  13.8 °C 30.03in /  1016.8hPa SW 6.6mph /  10.6km/h 11mph /  17.7km/h 89.4% 0.00in /  0mm 394 W/m2
10:48 60.3 °F /  15.7 °C 56.8 °F /  13.8 °C 30.03in /  1016.8hPa South 6.7mph /  10.8km/h 14mph /  22.5km/h 88.3% 0.00in /  0mm 343 W/m2
10:54 60.6 °F /  15.9 °C 56.7 °F /  13.7 °C 30.03in /  1016.8hPa SW 6.2mph /  10km/h 12mph /  19.3km/h 87% 0.00in /  0mm 315 W/m2
10:59 60.7 °F /  15.9 °C 56.5 °F /  13.6 °C 30.03in /  1016.8hPa SSW 7.9mph /  12.7km/h 14mph /  22.5km/h 85.6% 0.00in /  0mm 311 W/m2
11:04 61 °F /  16.1 °C 56.5 °F /  13.6 °C 30.03in /  1016.8hPa SSW 5.7mph /  9.2km/h 11mph /  17.7km/h 85% 0.00in /  0mm 302 W/m2
11:09 61.2 °F /  16.2 °C 56.5 °F /  13.6 °C 30.03in /  1016.8hPa SW 6.2mph /  10km/h 11mph /  17.7km/h 84.6% 0.00in /  0mm 267 W/m2
11:14 61.3 °F /  16.3 °C 56.5 °F /  13.6 °C 30.03in /  1016.8hPa SW 6.2mph /  10km/h 11mph /  17.7km/h 84% 0.00in /  0mm 265 W/m2
11:19 61.5 °F /  16.4 °C 56.7 °F /  13.7 °C 30.03in /  1016.8hPa SW 7mph /  11.3km/h 14mph /  22.5km/h 84% 0.00in /  0mm 385 W/m2
11:24 61.6 °F /  16.4 °C 56.4 °F /  13.6 °C 30.02in /  1016.5hPa SW 6.2mph /  10km/h 14mph /  22.5km/h 83% 0.00in /  0mm 573 W/m2
11:29 62.2 °F /  16.8 °C 56.6 °F /  13.7 °C 30.02in /  1016.5hPa South 4.8mph /  7.7km/h 11mph /  17.7km/h 82% 0.00in /  0mm 401 W/m2
11:34 62.4 °F /  16.9 °C 56.6 °F /  13.7 °C 30.01in /  1016.1hPa SSW 6.7mph /  10.8km/h 14mph /  22.5km/h 81.2% 0.00in /  0mm 480 W/m2
11:39 62.9 °F /  17.2 °C 56.7 °F /  13.7 °C 30.01in /  1016.1hPa South 5.4mph /  8.7km/h 13mph /  20.9km/h 80.4% 0.00in /  0mm 508 W/m2
11:44 63 °F /  17.2 °C 56.7 °F /  13.7 °C 30.01in /  1016.1hPa SSW 7.9mph /  12.7km/h 15mph /  24.1km/h 79.8% 0.00in /  0mm 315 W/m2
11:49 62.9 °F /  17.2 °C 55.9 °F /  13.3 °C 30.01in /  1016.1hPa SSW 8.8mph /  14.2km/h 17mph /  27.4km/h 78% 0.00in /  0mm 278 W/m2
11:54 62.8 °F /  17.1 °C 55.6 °F /  13.1 °C 30.02in /  1016.5hPa SSW 7.4mph /  11.9km/h 17mph /  27.4km/h 77.4% 0.00in /  0mm 225 W/m2
11:59 62.8 °F /  17.1 °C 55.7 °F /  13.2 °C 30.02in /  1016.5hPa SW 8.4mph /  13.5km/h 17mph /  27.4km/h 77.8% 0.00in /  0mm 178 W/m2
12:04 62.5 °F /  16.9 °C 55.4 °F /  13 °C 30.02in /  1016.5hPa SW 8.6mph /  13.8km/h 17mph /  27.4km/h 77.8% 0.00in /  0mm 188 W/m2
12:09 62.4 °F /  16.9 °C 55.4 °F /  13 °C 30.02in /  1016.5hPa SW 7.6mph /  12.2km/h 14mph /  22.5km/h 78% 0.00in /  0mm 227 W/m2
12:14 62.8 °F /  17.1 °C 55.8 °F /  13.2 °C 30.02in /  1016.5hPa SW 6.4mph /  10.3km/h 12mph /  19.3km/h 78% 0.00in /  0mm 216 W/m2
12:19 62.8 °F /  17.1 °C 55.8 °F /  13.2 °C 30.02in /  1016.5hPa SSW 8.6mph /  13.8km/h 16mph /  25.7km/h 78% 0.00in /  0mm 192 W/m2
12:24 62.6 °F /  17 °C 55.2 °F /  12.9 °C 30.02in /  1016.5hPa SW 8.5mph /  13.7km/h 17mph /  27.4km/h 77% 0.00in /  0mm 211 W/m2
12:29 62.7 °F /  17.1 °C 55.4 °F /  13 °C 30.02in /  1016.5hPa SW 6.8mph /  10.9km/h 18mph /  29km/h 77.4% 0.00in /  0mm 216 W/m2
12:34 62.8 °F /  17.1 °C 55.5 °F /  13.1 °C 30.01in /  1016.1hPa SSW 6mph /  9.7km/h 16mph /  25.7km/h 77.2% 0.00in /  0mm 234 W/m2
12:39 62.8 °F /  17.1 °C 55.6 °F /  13.1 °C 30.01in /  1016.1hPa SW 7.4mph /  11.9km/h 13mph /  20.9km/h 77.6% 0.00in /  0mm 264 W/m2
12:44 62.9 °F /  17.2 °C 55.6 °F /  13.1 °C 30.01in /  1016.1hPa SSW 10.4mph /  16.7km/h 15mph /  24.1km/h 77.2% 0.00in /  0mm 248 W/m2
12:49 62.7 °F /  17.1 °C 55.3 °F /  12.9 °C 30.01in /  1016.1hPa SW 10.6mph /  17.1km/h 17mph /  27.4km/h 77% 0.00in /  0mm 155 W/m2
12:54 62.4 °F /  16.9 °C 55.3 °F /  12.9 °C 30.02in /  1016.5hPa SW 6.7mph /  10.8km/h 15mph /  24.1km/h 77.6% 0.00in /  0mm 90 W/m2
12:58 62.2 °F /  16.8 °C 55.2 °F /  12.9 °C 30.02in /  1016.5hPa SW 10.2mph /  16.4km/h 15mph /  24.1km/h 78% 0.00in /  0mm 127 W/m2
13:04 62.2 °F /  16.8 °C 55.2 °F /  12.9 °C 30.02in /  1016.5hPa SW 6mph /  9.7km/h 13mph /  20.9km/h 78% 0.00in /  0mm 214 W/m2
13:09 62.2 °F /  16.8 °C 55.2 °F /  12.9 °C 30.01in /  1016.1hPa SSW 7.6mph /  12.2km/h 13mph /  20.9km/h 78% 0.00in /  0mm 200 W/m2
13:14 62.2 °F /  16.8 °C 55.3 °F /  12.9 °C 30.01in /  1016.1hPa SSW 7.6mph /  12.2km/h 13mph /  20.9km/h 78.4% 0.00in /  0mm 137 W/m2
13:19 62 °F /  16.7 °C 55.3 °F /  12.9 °C 30.01in /  1016.1hPa SSW 6.8mph /  10.9km/h 14mph /  22.5km/h 79% 0.00in /  0mm 142 W/m2
13:24 61.9 °F /  16.6 °C 55.3 °F /  12.9 °C 30.00in /  1015.8hPa SSW 6.2mph /  10km/h 16mph /  25.7km/h 79.2% 0.00in /  0mm 192 W/m2
13:29 62 °F /  16.7 °C 55.7 °F /  13.2 °C 30.00in /  1015.8hPa South 5.3mph /  8.5km/h 10mph /  16.1km/h 80% 0.00in /  0mm 267 W/m2
13:34 62.2 °F /  16.8 °C 55.7 °F /  13.2 °C 30.00in /  1015.8hPa SSW 5.6mph /  9km/h 11mph /  17.7km/h 79.4% 0.00in /  0mm 218 W/m2
13:39 62.3 °F /  16.8 °C 55.8 °F /  13.2 °C 30.00in /  1015.8hPa South 5.5mph /  8.9km/h 13mph /  20.9km/h 79.4% 0.00in /  0mm 211 W/m2
13:44 62.8 °F /  17.1 °C 56.1 °F /  13.4 °C 30.00in /  1015.8hPa SW 5.2mph /  8.4km/h 13mph /  20.9km/h 79% 0.00in /  0mm 260 W/m2
13:49 62.9 °F /  17.2 °C 56.2 °F /  13.4 °C 30.01in /  1016.1hPa SW 4.1mph /  6.6km/h 12mph /  19.3km/h 79% 0.00in /  0mm 272 W/m2
13:54 63.1 °F /  17.3 °C 56.1 °F /  13.4 °C 30.00in /  1015.8hPa SSW 7.6mph /  12.2km/h 14mph /  22.5km/h 78% 0.00in /  0mm 274 W/m2
13:59 63.3 °F /  17.4 °C 56.3 °F /  13.5 °C 30.00in /  1015.8hPa SSW 6.7mph /  10.8km/h 14mph /  22.5km/h 78% 0.00in /  0mm 313 W/m2
14:04 63.7 °F /  17.6 °C 56.6 °F /  13.7 °C 30.00in /  1015.8hPa SSW 6.2mph /  10km/h 13mph /  20.9km/h 77.8% 0.00in /  0mm 299 W/m2
14:09 63.9 °F /  17.7 °C 56.5 °F /  13.6 °C 29.99in /  1015.5hPa SSW 8.2mph /  13.2km/h 17mph /  27.4km/h 77% 0.00in /  0mm 659 W/m2
14:14 64.6 °F /  18.1 °C 56.9 °F /  13.8 °C 29.99in /  1015.5hPa SSW 9.2mph /  14.8km/h 17mph /  27.4km/h 76% 0.00in /  0mm 663 W/m2
14:19 64.6 °F /  18.1 °C 56.7 °F /  13.7 °C 30.00in /  1015.8hPa South 8mph /  12.9km/h 19mph /  30.6km/h 75.6% 0.00in /  0mm 225 W/m2
14:24 64.1 °F /  17.8 °C 56.2 °F /  13.4 °C 30.00in /  1015.8hPa SSW 9.8mph /  15.8km/h 17mph /  27.4km/h 75.6% 0.00in /  0mm 151 W/m2
14:29 64 °F /  17.8 °C 56.3 °F /  13.5 °C 30.00in /  1015.8hPa SSW 7.3mph /  11.7km/h 12mph /  19.3km/h 76% 0.00in /  0mm 163 W/m2
14:34 64 °F /  17.8 °C 56.5 °F /  13.6 °C 30.00in /  1015.8hPa SW 9.4mph /  15.1km/h 16mph /  25.7km/h 76.4% 0.00in /  0mm 160 W/m2
14:39 64 °F /  17.8 °C 56.7 °F /  13.7 °C 29.99in /  1015.5hPa SSW 8.4mph /  13.5km/h 15mph /  24.1km/h 77% 0.00in /  0mm 383 W/m2
14:44 64.6 °F /  18.1 °C 57 °F /  13.9 °C 29.99in /  1015.5hPa SW 5.9mph /  9.5km/h 13mph /  20.9km/h 76.6% 0.00in /  0mm 506 W/m2
14:49 65.1 °F /  18.4 °C 57.1 °F /  13.9 °C 29.99in /  1015.5hPa SW 8.6mph /  13.8km/h 19mph /  30.6km/h 75.4% 0.00in /  0mm 485 W/m2
14:54 64.9 °F /  18.3 °C 56.8 °F /  13.8 °C 29.99in /  1015.5hPa WSW 7.6mph /  12.2km/h 16mph /  25.7km/h 75% 0.00in /  0mm 264 W/m2
14:59 65 °F /  18.3 °C 56.9 °F /  13.8 °C 29.99in /  1015.5hPa SW 6.3mph /  10.1km/h 12mph /  19.3km/h 75% 0.00in /  0mm 285 W/m2
15:04 65.1 °F /  18.4 °C 57 °F /  13.9 °C 29.99in /  1015.5hPa SW 9.4mph /  15.1km/h 22mph /  35.4km/h 75% 0.00in /  0mm 362 W/m2
15:09 64.9 °F /  18.3 °C 56.8 °F /  13.8 °C 29.98in /  1015.1hPa SSW 8.8mph /  14.2km/h 18mph /  29km/h 75% 0.00in /  0mm 520 W/m2
15:14 65 °F /  18.3 °C 57.1 °F /  13.9 °C 29.99in /  1015.5hPa SW 9.8mph /  15.8km/h 18mph /  29km/h 75.6% 0.00in /  0mm 475 W/m2
15:19 64.8 °F /  18.2 °C 56.9 °F /  13.8 °C 29.98in /  1015.1hPa SSW 8.6mph /  13.8km/h 21mph /  33.8km/h 75.8% 0.00in /  0mm 411 W/m2
15:24 64.9 °F /  18.3 °C 57.1 °F /  13.9 °C 29.98in /  1015.1hPa SW 8.2mph /  13.2km/h 18mph /  29km/h 76% 0.00in /  0mm 288 W/m2
15:29 64.9 °F /  18.3 °C 57.2 °F /  14 °C 29.99in /  1015.5hPa WSW 6.8mph /  10.9km/h 13mph /  20.9km/h 76% 0.00in /  0mm 146 W/m2
15:34 64.6 °F /  18.1 °C 57.1 °F /  13.9 °C 29.99in /  1015.5hPa SW 7mph /  11.3km/h 13mph /  20.9km/h 76.6% 0.00in /  0mm 130 W/m2
15:39 64.4 °F /  18 °C 57 °F /  13.9 °C 29.99in /  1015.5hPa SW 4.8mph /  7.7km/h 13mph /  20.9km/h 77% 0.00in /  0mm 223 W/m2
15:44 64.4 °F /  18 °C 57 °F /  13.9 °C 29.99in /  1015.5hPa SW 7.4mph /  11.9km/h 12mph /  19.3km/h 77% 0.00in /  0mm 234 W/m2
15:49 64.1 °F /  17.8 °C 56.9 °F /  13.8 °C 29.98in /  1015.1hPa SW 9mph /  14.5km/h 16mph /  25.7km/h 77.6% 0.00in /  0mm 195 W/m2
15:54 64.2 °F /  17.9 °C 57.2 °F /  14 °C 29.98in /  1015.1hPa SW 6mph /  9.7km/h 14mph /  22.5km/h 78% 0.00in /  0mm 100 W/m2
15:59 64 °F /  17.8 °C 57 °F /  13.9 °C 29.98in /  1015.1hPa SW 4.8mph /  7.7km/h 15mph /  24.1km/h 78% 0.00in /  0mm 98 W/m2
16:04 64 °F /  17.8 °C 56.9 °F /  13.8 °C 29.98in /  1015.1hPa SW 4.9mph /  7.9km/h 13mph /  20.9km/h 78% 0.00in /  0mm 69 W/m2
16:09 63.9 °F /  17.7 °C 57.2 °F /  14 °C 29.99in /  1015.5hPa SSW 3.6mph /  5.8km/h 7mph /  11.3km/h 79% 0.00in /  0mm 63 W/m2
16:14 63.6 °F /  17.6 °C 56.9 °F /  13.8 °C 29.99in /  1015.5hPa SW 5.2mph /  8.4km/h 14mph /  22.5km/h 79% 0.00in /  0mm 58 W/m2
16:19 63.3 °F /  17.4 °C 56.7 °F /  13.7 °C 29.98in /  1015.1hPa WSW 5.6mph /  9km/h 13mph /  20.9km/h 79% 0.00in /  0mm 56 W/m2
16:24 63.2 °F /  17.3 °C 56.9 °F /  13.8 °C 29.98in /  1015.1hPa WSW 4.7mph /  7.6km/h 12mph /  19.3km/h 79.8% 0.00in /  0mm 83 W/m2
16:29 63.2 °F /  17.3 °C 56.9 °F /  13.8 °C 29.98in /  1015.1hPa SW 5.2mph /  8.4km/h 12mph /  19.3km/h 80% 0.00in /  0mm 81 W/m2
16:34 63.3 °F /  17.4 °C 57 °F /  13.9 °C 29.98in /  1015.1hPa SW 3.9mph /  6.3km/h 8mph /  12.9km/h 80% 0.00in /  0mm 53 W/m2
16:39 63.1 °F /  17.3 °C 56.8 °F /  13.8 °C 29.98in /  1015.1hPa SW 3.9mph /  6.3km/h 9mph /  14.5km/h 80% 0.00in /  0mm 35 W/m2
16:44 63 °F /  17.2 °C 56.7 °F /  13.7 °C 29.98in /  1015.1hPa SW 5mph /  8km/h 13mph /  20.9km/h 80% 0.00in /  0mm 32 W/m2
16:49 62.9 °F /  17.2 °C 56.7 °F /  13.7 °C 29.98in /  1015.1hPa SSW 6.6mph /  10.6km/h 15mph /  24.1km/h 80.4% 0.00in /  0mm 32 W/m2
16:54 62.8 °F /  17.1 °C 56.8 °F /  13.8 °C 29.98in /  1015.1hPa SW 6.8mph /  10.9km/h 15mph /  24.1km/h 81% 0.00in /  0mm 49 W/m2
16:59 62.6 °F /  17 °C 56.7 °F /  13.7 °C 29.98in /  1015.1hPa South 6.5mph /  10.5km/h 11mph /  17.7km/h 81% 0.00in /  0mm 49 W/m2
17:04 62.4 °F /  16.9 °C 56.5 °F /  13.6 °C 29.97in /  1014.8hPa SSW 7.4mph /  11.9km/h 12mph /  19.3km/h 81% 0.00in /  0mm 53 W/m2
17:09 62.2 °F /  16.8 °C 56.5 °F /  13.6 °C 29.97in /  1014.8hPa SSW 6mph /  9.7km/h 14mph /  22.5km/h 81.6% 0.00in /  0mm 60 W/m2
17:14 62.2 °F /  16.8 °C 56.7 °F /  13.7 °C 29.97in /  1014.8hPa SSW 8.4mph /  13.5km/h 19mph /  30.6km/h 82% 0.00in /  0mm 88 W/m2
17:19 62.2 °F /  16.8 °C 56.7 °F /  13.7 °C 29.97in /  1014.8hPa SSW 9mph /  14.5km/h 18mph /  29km/h 82% 0.00in /  0mm 128 W/m2
17:24 62.3 °F /  16.8 °C 56.7 °F /  13.7 °C 29.97in /  1014.8hPa SSW 6.5mph /  10.5km/h 19mph /  30.6km/h 82% 0.00in /  0mm 163 W/m2
17:29 62.4 °F /  16.9 °C 56.5 °F /  13.6 °C 29.97in /  1014.8hPa SSW 8.2mph /  13.2km/h 16mph /  25.7km/h 81% 0.00in /  0mm 137 W/m2
17:34 62.4 °F /  16.9 °C 56.5 °F /  13.6 °C 29.97in /  1014.8hPa SW 6.4mph /  10.3km/h 13mph /  20.9km/h 81% 0.00in /  0mm 65 W/m2
17:39 62.3 °F /  16.8 °C 56.4 °F /  13.6 °C 29.97in /  1014.8hPa SW 9.4mph /  15.1km/h 15mph /  24.1km/h 81% 0.00in /  0mm 23 W/m2
17:44 62.2 °F /  16.8 °C 56.5 °F /  13.6 °C 29.97in /  1014.8hPa SW 6.3mph /  10.1km/h 14mph /  22.5km/h 81.6% 0.00in /  0mm 25 W/m2
17:49 62.2 °F /  16.8 °C 56.7 °F /  13.7 °C 29.97in /  1014.8hPa SW 5.4mph /  8.7km/h 13mph /  20.9km/h 82% 0.00in /  0mm 23 W/m2
17:54 62.1 °F /  16.7 °C 56.5 °F /  13.6 °C 29.97in /  1014.8hPa SSW 6.8mph /  10.9km/h 14mph /  22.5km/h 82% 0.00in /  0mm 21 W/m2
17:59 62.1 °F /  16.7 °C 56.5 °F /  13.6 °C 29.97in /  1014.8hPa SW 10.6mph /  17.1km/h 15mph /  24.1km/h 82% 0.00in /  0mm 23 W/m2
18:04 61.9 °F /  16.6 °C 56.3 °F /  13.5 °C 29.97in /  1014.8hPa SW 9.7mph /  15.6km/h 15mph /  24.1km/h 82% 0.00in /  0mm 23 W/m2
18:09 61.9 °F /  16.6 °C 56.3 °F /  13.5 °C 29.97in /  1014.8hPa SW 9.2mph /  14.8km/h 18mph /  29km/h 82% 0.00in /  0mm 12 W/m2
18:14 61.9 °F /  16.6 °C 56.3 °F /  13.5 °C 29.97in /  1014.8hPa SW 9mph /  14.5km/h 18mph /  29km/h 82% 0.00in /  0mm 14 W/m2
18:19 61.9 °F /  16.6 °C 56.3 °F /  13.5 °C 29.96in /  1014.4hPa SSW 8.8mph /  14.2km/h 17mph /  27.4km/h 82% 0.00in /  0mm 18 W/m2
18:24 61.7 °F /  16.5 °C 56.1 °F /  13.4 °C 29.96in /  1014.4hPa SSW 10.4mph /  16.7km/h 16mph /  25.7km/h 82% 0.00in /  0mm 14 W/m2
18:29 61.6 °F /  16.4 °C 56.2 °F /  13.4 °C 29.97in /  1014.8hPa SSW 7mph /  11.3km/h 15mph /  24.1km/h 82.6% 0.00in /  0mm 12 W/m2
18:34 61.5 °F /  16.4 °C 56.3 °F /  13.5 °C 29.97in /  1014.8hPa SSW 10.7mph /  17.2km/h 18mph /  29km/h 83% 0.00in /  0mm 7 W/m2
18:39 61.5 °F /  16.4 °C 56.3 °F /  13.5 °C 29.97in /  1014.8hPa SW 12mph /  19.3km/h 18mph /  29km/h 83% 0.00in /  0mm 0 W/m2
18:44 61.5 °F /  16.4 °C 56.3 °F /  13.5 °C 29.97in /  1014.8hPa SSW 9mph /  14.5km/h 17mph /  27.4km/h 83% 0.00in /  0mm 0 W/m2
18:49 61.5 °F /  16.4 °C 56.3 °F /  13.5 °C 29.96in /  1014.4hPa SSW 8.8mph /  14.2km/h 13mph /  20.9km/h 83% 0.00in /  0mm 0 W/m2
18:54 61.4 °F /  16.3 °C 56.2 °F /  13.4 °C 29.96in /  1014.4hPa SSW 6.6mph /  10.6km/h 14mph /  22.5km/h 83% 0.00in /  0mm 0 W/m2
18:59 61.3 °F /  16.3 °C 56.1 °F /  13.4 °C 29.96in /  1014.4hPa SW 8.8mph /  14.2km/h 15mph /  24.1km/h 83% 0.00in /  0mm 0 W/m2
19:04 61.3 °F /  16.3 °C 56.1 °F /  13.4 °C 29.97in /  1014.8hPa SSW 4.9mph /  7.9km/h 11mph /  17.7km/h 83% 0.00in /  0mm 0 W/m2
19:09 61.3 °F /  16.3 °C 56.1 °F /  13.4 °C 29.97in /  1014.8hPa SSW 6.8mph /  10.9km/h 14mph /  22.5km/h 83% 0.00in /  0mm 0 W/m2
19:14 61.3 °F /  16.3 °C 56.1 °F /  13.4 °C 29.96in /  1014.4hPa SSW 6.2mph /  10km/h 13mph /  20.9km/h 83% 0.00in /  0mm 0 W/m2
19:19 61.3 °F /  16.3 °C 56.1 °F /  13.4 °C 29.96in /  1014.4hPa SSW 10.2mph /  16.4km/h 17mph /  27.4km/h 83% 0.00in /  0mm 0 W/m2
19:24 61.3 °F /  16.3 °C 56.1 °F /  13.4 °C 29.96in /  1014.4hPa SW 10.4mph /  16.7km/h 17mph /  27.4km/h 83% 0.00in /  0mm 0 W/m2
19:29 61.3 °F /  16.3 °C 56 °F /  13.3 °C 29.96in /  1014.4hPa SSW 8mph /  12.9km/h 15mph /  24.1km/h 83% 0.00in /  0mm 0 W/m2
19:34 61.2 °F /  16.2 °C 55.9 °F /  13.3 °C 29.96in /  1014.4hPa SW 9.2mph /  14.8km/h 16mph /  25.7km/h 83% 0.00in /  0mm 0 W/m2
19:39 61.2 °F /  16.2 °C 55.9 °F /  13.3 °C 29.96in /  1014.4hPa SW 8.4mph /  13.5km/h 15mph /  24.1km/h 83% 0.00in /  0mm 0 W/m2
19:44 61.2 °F /  16.2 °C 55.9 °F /  13.3 °C 29.96in /  1014.4hPa SW 7.4mph /  11.9km/h 14mph /  22.5km/h 83% 0.00in /  0mm 0 W/m2
19:49 61 °F /  16.1 °C 55.8 °F /  13.2 °C 29.96in /  1014.4hPa SW 7.2mph /  11.6km/h 14mph /  22.5km/h 83% 0.00in /  0mm 0 W/m2
19:54 61 °F /  16.1 °C 56 °F /  13.3 °C 29.96in /  1014.4hPa SW 7.2mph /  11.6km/h 17mph /  27.4km/h 83.8% 0.00in /  0mm 0 W/m2
19:59 61 °F /  16.1 °C 56.1 °F /  13.4 °C 29.96in /  1014.4hPa SW 10.2mph /  16.4km/h 17mph /  27.4km/h 84% 0.00in /  0mm 0 W/m2
20:04 61 °F /  16.1 °C 56.1 °F /  13.4 °C 29.96in /  1014.4hPa SW 6.2mph /  10km/h 14mph /  22.5km/h 84% 0.00in /  0mm 0 W/m2
20:09 61 °F /  16.1 °C 56.1 °F /  13.4 °C 29.96in /  1014.4hPa SW 6.2mph /  10km/h 15mph /  24.1km/h 84% 0.00in /  0mm 0 W/m2
20:14 61 °F /  16.1 °C 56.1 °F /  13.4 °C 29.96in /  1014.4hPa SSW 8.6mph /  13.8km/h 18mph /  29km/h 84% 0.00in /  0mm 0 W/m2
20:19 61 °F /  16.1 °C 56.1 °F /  13.4 °C 29.96in /  1014.4hPa SSW 8.4mph /  13.5km/h 18mph /  29km/h 84% 0.00in /  0mm 0 W/m2
20:24 61 °F /  16.1 °C 56.1 °F /  13.4 °C 29.96in /  1014.4hPa SSW 3.4mph /  5.5km/h 10mph /  16.1km/h 84% 0.00in /  0mm 0 W/m2
20:29 61 °F /  16.1 °C 56.1 °F /  13.4 °C 29.96in /  1014.4hPa South 7.4mph /  11.9km/h 12mph /  19.3km/h 84% 0.00in /  0mm 0 W/m2
20:34 61 °F /  16.1 °C 56.1 °F /  13.4 °C 29.96in /  1014.4hPa SSW 6.6mph /  10.6km/h 13mph /  20.9km/h 84% 0.00in /  0mm 0 W/m2
20:39 61 °F /  16.1 °C 56.1 °F /  13.4 °C 29.96in /  1014.4hPa SW 4.9mph /  7.9km/h 12mph /  19.3km/h 84% 0.00in /  0mm 0 W/m2
20:44 61 °F /  16.1 °C 56.1 °F /  13.4 °C 29.96in /  1014.4hPa SSW 3.7mph /  6km/h 12mph /  19.3km/h 84% 0.00in /  0mm 0 W/m2
20:49 60.8 °F /  16 °C 55.9 °F /  13.3 °C 29.96in /  1014.4hPa SW 5.2mph /  8.4km/h 8mph /  12.9km/h 84% 0.00in /  0mm 0 W/m2
20:54 60.8 °F /  16 °C 55.9 °F /  13.3 °C 29.96in /  1014.4hPa SSW 3.9mph /  6.3km/h 8mph /  12.9km/h 84% 0.00in /  0mm 0 W/m2
20:59 60.7 °F /  15.9 °C 55.8 °F /  13.2 °C 29.95in /  1014.1hPa SSW 4.6mph /  7.4km/h 8mph /  12.9km/h 84% 0.00in /  0mm 0 W/m2
21:04 60.6 °F /  15.9 °C 55.8 °F /  13.2 °C 29.95in /  1014.1hPa SSW 5.2mph /  8.4km/h 9mph /  14.5km/h 84% 0.00in /  0mm 0 W/m2
21:09 60.7 °F /  15.9 °C 55.9 °F /  13.3 °C 29.95in /  1014.1hPa SW 6.4mph /  10.3km/h 11mph /  17.7km/h 84% 0.00in /  0mm 0 W/m2
21:14 60.8 °F /  16 °C 55.9 °F /  13.3 °C 29.95in /  1014.1hPa SW 5.1mph /  8.2km/h 11mph /  17.7km/h 84% 0.00in /  0mm 0 W/m2
21:19 60.9 °F /  16.1 °C 56 °F /  13.3 °C 29.95in /  1014.1hPa SSW 3.2mph /  5.1km/h 7mph /  11.3km/h 84% 0.00in /  0mm 0 W/m2
21:24 61 °F /  16.1 °C 56.1 °F /  13.4 °C 29.95in /  1014.1hPa SW 8mph /  12.9km/h 14mph /  22.5km/h 84% 0.00in /  0mm 0 W/m2
21:29 61 °F /  16.1 °C 56.1 °F /  13.4 °C 29.95in /  1014.1hPa SW 4.8mph /  7.7km/h 10mph /  16.1km/h 84% 0.00in /  0mm 0 W/m2
21:34 61 °F /  16.1 °C 56.1 °F /  13.4 °C 29.95in /  1014.1hPa SSW 3.8mph /  6.1km/h 10mph /  16.1km/h 84% 0.00in /  0mm 0 W/m2
21:39 61 °F /  16.1 °C 56.1 °F /  13.4 °C 29.95in /  1014.1hPa SSW 3.7mph /  6km/h 8mph /  12.9km/h 84% 0.00in /  0mm 0 W/m2
21:44 61.2 °F /  16.2 °C 56.3 °F /  13.5 °C 29.94in /  1013.8hPa SSW 5.4mph /  8.7km/h 12mph /  19.3km/h 84% 0.00in /  0mm 0 W/m2
21:49 61.2 °F /  16.2 °C 56.1 °F /  13.4 °C 29.94in /  1013.8hPa SSW 6mph /  9.7km/h 10mph /  16.1km/h 83.6% 0.00in /  0mm 0 W/m2
21:54 61.2 °F /  16.2 °C 55.9 °F /  13.3 °C 29.95in /  1014.1hPa South 4.4mph /  7.1km/h 10mph /  16.1km/h 83% 0.00in /  0mm 0 W/m2
21:59 61.2 °F /  16.2 °C 55.9 °F /  13.3 °C 29.94in /  1013.8hPa South 6.3mph /  10.1km/h 16mph /  25.7km/h 83% 0.00in /  0mm 0 W/m2
22:04 61.2 °F /  16.2 °C 55.9 °F /  13.3 °C 29.94in /  1013.8hPa South 5.6mph /  9km/h 10mph /  16.1km/h 83% 0.00in /  0mm 0 W/m2
22:09 61.2 °F /  16.2 °C 55.9 °F /  13.3 °C 29.94in /  1013.8hPa South 3.7mph /  6km/h 7mph /  11.3km/h 83% 0.00in /  0mm 0 W/m2
22:14 61.2 °F /  16.2 °C 55.9 °F /  13.3 °C 29.94in /  1013.8hPa South 3.2mph /  5.1km/h 10mph /  16.1km/h 83% 0.00in /  0mm 0 W/m2
22:19 61.2 °F /  16.2 °C 55.9 °F /  13.3 °C 29.94in /  1013.8hPa SSE 2.9mph /  4.7km/h 9mph /  14.5km/h 83% 0.00in /  0mm 0 W/m2
22:24 61.2 °F /  16.2 °C 55.9 °F /  13.3 °C 29.94in /  1013.8hPa South 4mph /  6.4km/h 9mph /  14.5km/h 83% 0.00in /  0mm 0 W/m2
22:29 61.2 °F /  16.2 °C 56 °F /  13.3 °C 29.94in /  1013.8hPa South 3.6mph /  5.8km/h 12mph /  19.3km/h 83.2% 0.00in /  0mm 0 W/m2
22:34 61.2 °F /  16.2 °C 55.9 °F /  13.3 °C 29.94in /  1013.8hPa South 2.5mph /  4km/h 5mph /  8km/h 83% 0.00in /  0mm 0 W/m2
22:39 61.2 °F /  16.2 °C 55.9 °F /  13.3 °C 29.93in /  1013.4hPa South 3.3mph /  5.3km/h 9mph /  14.5km/h 83% 0.00in /  0mm 0 W/m2
22:44 61.2 °F /  16.2 °C 55.9 °F /  13.3 °C 29.93in /  1013.4hPa SSW 6.6mph /  10.6km/h 15mph /  24.1km/h 83% 0.00in /  0mm 0 W/m2
22:49 61.2 °F /  16.2 °C 55.9 °F /  13.3 °C 29.93in /  1013.4hPa SSE 6.7mph /  10.8km/h 15mph /  24.1km/h 83% 0.00in /  0mm 0 W/m2
22:54 61.2 °F /  16.2 °C 55.9 °F /  13.3 °C 29.93in /  1013.4hPa South 3.8mph /  6.1km/h 9mph /  14.5km/h 83% 0.00in /  0mm 0 W/m2
22:59 61.2 °F /  16.2 °C 55.9 °F /  13.3 °C 29.93in /  1013.4hPa SSE 6.1mph /  9.8km/h 14mph /  22.5km/h 83% 0.00in /  0mm 0 W/m2
23:04 61.2 °F /  16.2 °C 55.9 °F /  13.3 °C 29.93in /  1013.4hPa SSW 7.5mph /  12.1km/h 14mph /  22.5km/h 83% 0.00in /  0mm 0 W/m2
23:09 61.2 °F /  16.2 °C 55.9 °F /  13.3 °C 29.93in /  1013.4hPa South 4mph /  6.4km/h 9mph /  14.5km/h 83% 0.00in /  0mm 0 W/m2
23:14 61.2 °F /  16.2 °C 55.9 °F /  13.3 °C 29.93in /  1013.4hPa South 5.6mph /  9km/h 17mph /  27.4km/h 83% 0.00in /  0mm 0 W/m2
23:19 61.3 °F /  16.3 °C 56.1 °F /  13.4 °C 29.92in /  1013.1hPa South 4.8mph /  7.7km/h 13mph /  20.9km/h 83% 0.00in /  0mm 0 W/m2
23:24 61.3 °F /  16.3 °C 56.1 °F /  13.4 °C 29.92in /  1013.1hPa South 5.2mph /  8.4km/h 15mph /  24.1km/h 83% 0.00in /  0mm 0 W/m2
23:29 61.3 °F /  16.3 °C 56.1 °F /  13.4 °C 29.92in /  1013.1hPa South 3.5mph /  5.6km/h 15mph /  24.1km/h 83% 0.00in /  0mm 0 W/m2
23:34 61.3 °F /  16.3 °C 56.1 °F /  13.4 °C 29.92in /  1013.1hPa South 7.6mph /  12.2km/h 20mph /  32.2km/h 83% 0.00in /  0mm 0 W/m2
23:39 61.3 °F /  16.3 °C 56.1 °F /  13.4 °C 29.92in /  1013.1hPa SSW 10.6mph /  17.1km/h 19mph /  30.6km/h 83% 0.00in /  0mm 0 W/m2
23:44 61.3 °F /  16.3 °C 56.1 °F /  13.4 °C 29.91in /  1012.8hPa South 4.9mph /  7.9km/h 19mph /  30.6km/h 83% 0.00in /  0mm 0 W/m2
23:49 61.3 °F /  16.3 °C 56.1 °F /  13.4 °C 29.91in /  1012.8hPa SW 8.6mph /  13.8km/h 19mph /  30.6km/h 83% 0.00in /  0mm 0 W/m2
23:54 61.3 °F /  16.3 °C 56.1 °F /  13.4 °C 29.91in /  1012.8hPa SSW 6.2mph /  10km/h 15mph /  24.1km/h 83% 0.00in /  0mm 0 W/m2
23:59 61.3 °F /  16.3 °C 56.1 °F /  13.4 °C 29.91in /  1012.8hPa SSW 3.2mph /  5.1km/h 16mph /  25.7km/h 83% 0.00in /  0mm 0 W/m2
Bath Spa Weather
Compliments of Weather Underground - 2 mb